sensor_id;sensor_type;location;lat;lon;timestamp;P1;durP1;ratioP1;P2;durP2;ratioP2
71975;SDS011;60680;52.182;5.398;2022-07-25T00:01:15;4.63;;;2.58;;
71975;SDS011;60680;52.182;5.398;2022-07-25T00:03:45;4.00;;;2.60;;
71975;SDS011;60680;52.182;5.398;2022-07-25T00:06:13;3.85;;;2.50;;
71975;SDS011;60680;52.182;5.398;2022-07-25T00:08:43;7.20;;;3.25;;
71975;SDS011;60680;52.182;5.398;2022-07-25T00:11:09;3.43;;;2.50;;
71975;SDS011;60680;52.182;5.398;2022-07-25T00:13:36;3.20;;;2.78;;
71975;SDS011;60680;52.182;5.398;2022-07-25T00:16:03;4.28;;;2.60;;
71975;SDS011;60680;52.182;5.398;2022-07-25T00:18:30;4.05;;;2.83;;
71975;SDS011;60680;52.182;5.398;2022-07-25T00:20:56;4.03;;;2.60;;
71975;SDS011;60680;52.182;5.398;2022-07-25T00:23:24;4.93;;;2.60;;
71975;SDS011;60680;52.182;5.398;2022-07-25T00:25:50;5.25;;;2.97;;
71975;SDS011;60680;52.182;5.398;2022-07-25T00:28:17;3.53;;;2.67;;
71975;SDS011;60680;52.182;5.398;2022-07-25T00:30:44;4.07;;;2.72;;
71975;SDS011;60680;52.182;5.398;2022-07-25T00:33:10;3.67;;;2.80;;
71975;SDS011;60680;52.182;5.398;2022-07-25T00:35:37;5.50;;;3.20;;
71975;SDS011;60680;52.182;5.398;2022-07-25T00:38:03;5.00;;;3.20;;
71975;SDS011;60680;52.182;5.398;2022-07-25T00:40:30;4.80;;;3.17;;
71975;SDS011;60680;52.182;5.398;2022-07-25T00:42:56;4.38;;;3.28;;
71975;SDS011;60680;52.182;5.398;2022-07-25T00:45:23;5.97;;;3.70;;
71975;SDS011;60680;52.182;5.398;2022-07-25T00:47:50;3.90;;;3.27;;
71975;SDS011;60680;52.182;5.398;2022-07-25T00:50:16;4.63;;;3.30;;
71975;SDS011;60680;52.182;5.398;2022-07-25T00:52:43;4.30;;;3.17;;
71975;SDS011;60680;52.182;5.398;2022-07-25T00:55:10;5.50;;;3.40;;
71975;SDS011;60680;52.182;5.398;2022-07-25T00:57:38;4.15;;;3.45;;
71975;SDS011;60680;52.182;5.398;2022-07-25T01:00:05;4.10;;;3.43;;
71975;SDS011;60680;52.182;5.398;2022-07-25T01:02:34;5.45;;;3.78;;
71975;SDS011;60680;52.182;5.398;2022-07-25T01:05:01;3.97;;;3.42;;
71975;SDS011;60680;52.182;5.398;2022-07-25T01:07:28;4.55;;;3.80;;
71975;SDS011;60680;52.182;5.398;2022-07-25T01:09:55;4.90;;;3.67;;
71975;SDS011;60680;52.182;5.398;2022-07-25T01:12:22;4.90;;;3.93;;
71975;SDS011;60680;52.182;5.398;2022-07-25T01:14:49;6.63;;;4.03;;
71975;SDS011;60680;52.182;5.398;2022-07-25T01:17:15;6.82;;;4.35;;
71975;SDS011;60680;52.182;5.398;2022-07-25T01:19:42;6.85;;;4.05;;
71975;SDS011;60680;52.182;5.398;2022-07-25T01:22:09;4.82;;;4.28;;
71975;SDS011;60680;52.182;5.398;2022-07-25T01:24:35;7.17;;;3.77;;
71975;SDS011;60680;52.182;5.398;2022-07-25T01:27:02;7.35;;;4.10;;
71975;SDS011;60680;52.182;5.398;2022-07-25T01:29:29;8.10;;;4.60;;
71975;SDS011;60680;52.182;5.398;2022-07-25T01:31:55;5.40;;;4.25;;
71975;SDS011;60680;52.182;5.398;2022-07-25T01:34:22;7.65;;;4.60;;
71975;SDS011;60680;52.182;5.398;2022-07-25T01:36:48;5.20;;;4.20;;
71975;SDS011;60680;52.182;5.398;2022-07-25T01:39:15;5.10;;;4.05;;
71975;SDS011;60680;52.182;5.398;2022-07-25T01:41:41;7.25;;;5.03;;
71975;SDS011;60680;52.182;5.398;2022-07-25T01:44:08;8.73;;;4.97;;
71975;SDS011;60680;52.182;5.398;2022-07-25T01:46:35;6.93;;;4.55;;
71975;SDS011;60680;52.182;5.398;2022-07-25T01:49:02;5.63;;;4.20;;
71975;SDS011;60680;52.182;5.398;2022-07-25T01:51:28;7.00;;;4.72;;
71975;SDS011;60680;52.182;5.398;2022-07-25T01:53:55;5.75;;;4.38;;
71975;SDS011;60680;52.182;5.398;2022-07-25T01:56:22;6.07;;;4.32;;
71975;SDS011;60680;52.182;5.398;2022-07-25T01:58:49;5.75;;;4.25;;
71975;SDS011;60680;52.182;5.398;2022-07-25T02:01:16;5.57;;;3.67;;
71975;SDS011;60680;52.182;5.398;2022-07-25T02:03:47;4.78;;;3.42;;
71975;SDS011;60680;52.182;5.398;2022-07-25T02:06:13;5.00;;;3.63;;
71975;SDS011;60680;52.182;5.398;2022-07-25T02:08:40;5.78;;;3.65;;
71975;SDS011;60680;52.182;5.398;2022-07-25T02:11:06;6.28;;;3.88;;
71975;SDS011;60680;52.182;5.398;2022-07-25T02:13:33;4.70;;;3.67;;
71975;SDS011;60680;52.182;5.398;2022-07-25T02:15:59;5.38;;;3.50;;
71975;SDS011;60680;52.182;5.398;2022-07-25T02:18:26;6.20;;;3.65;;
71975;SDS011;60680;52.182;5.398;2022-07-25T02:20:53;4.68;;;3.95;;
71975;SDS011;60680;52.182;5.398;2022-07-25T02:23:19;6.53;;;3.88;;
71975;SDS011;60680;52.182;5.398;2022-07-25T02:25:46;5.27;;;3.93;;
71975;SDS011;60680;52.182;5.398;2022-07-25T02:28:12;4.38;;;3.75;;
71975;SDS011;60680;52.182;5.398;2022-07-25T02:30:39;5.25;;;3.40;;
71975;SDS011;60680;52.182;5.398;2022-07-25T02:33:05;4.15;;;3.65;;
71975;SDS011;60680;52.182;5.398;2022-07-25T02:35:32;5.55;;;4.00;;
71975;SDS011;60680;52.182;5.398;2022-07-25T02:37:58;6.17;;;3.73;;
71975;SDS011;60680;52.182;5.398;2022-07-25T02:40:25;4.20;;;3.40;;
71975;SDS011;60680;52.182;5.398;2022-07-25T02:42:52;4.43;;;3.10;;
71975;SDS011;60680;52.182;5.398;2022-07-25T02:45:18;4.35;;;3.30;;
71975;SDS011;60680;52.182;5.398;2022-07-25T02:47:45;4.70;;;3.78;;
71975;SDS011;60680;52.182;5.398;2022-07-25T02:50:11;4.50;;;3.73;;
71975;SDS011;60680;52.182;5.398;2022-07-25T02:52:40;7.68;;;4.18;;
71975;SDS011;60680;52.182;5.398;2022-07-25T02:55:06;5.95;;;4.40;;
71975;SDS011;60680;52.182;5.398;2022-07-25T02:57:35;7.25;;;4.22;;
71975;SDS011;60680;52.182;5.398;2022-07-25T03:00:02;6.57;;;4.07;;
71975;SDS011;60680;52.182;5.398;2022-07-25T03:02:30;7.93;;;4.50;;
71975;SDS011;60680;52.182;5.398;2022-07-25T03:04:56;5.07;;;4.10;;
71975;SDS011;60680;52.182;5.398;2022-07-25T03:07:23;5.15;;;4.55;;
71975;SDS011;60680;52.182;5.398;2022-07-25T03:09:49;7.38;;;4.53;;
71975;SDS011;60680;52.182;5.398;2022-07-25T03:12:16;5.90;;;4.45;;
71975;SDS011;60680;52.182;5.398;2022-07-25T03:14:43;6.07;;;4.37;;
71975;SDS011;60680;52.182;5.398;2022-07-25T03:17:09;6.18;;;4.57;;
71975;SDS011;60680;52.182;5.398;2022-07-25T03:19:37;6.90;;;5.13;;
71975;SDS011;60680;52.182;5.398;2022-07-25T03:22:03;8.35;;;4.93;;
71975;SDS011;60680;52.182;5.398;2022-07-25T03:24:30;6.40;;;5.03;;
71975;SDS011;60680;52.182;5.398;2022-07-25T03:26:56;6.97;;;4.80;;
71975;SDS011;60680;52.182;5.398;2022-07-25T03:29:23;10.23;;;4.95;;
71975;SDS011;60680;52.182;5.398;2022-07-25T03:31:50;7.72;;;5.10;;
71975;SDS011;60680;52.182;5.398;2022-07-25T03:34:17;6.47;;;5.47;;
71975;SDS011;60680;52.182;5.398;2022-07-25T03:36:43;7.68;;;4.88;;
71975;SDS011;60680;52.182;5.398;2022-07-25T03:39:10;7.43;;;5.00;;
71975;SDS011;60680;52.182;5.398;2022-07-25T03:41:37;6.18;;;4.85;;
71975;SDS011;60680;52.182;5.398;2022-07-25T03:44:04;8.63;;;4.88;;
71975;SDS011;60680;52.182;5.398;2022-07-25T03:46:31;8.50;;;5.07;;
71975;SDS011;60680;52.182;5.398;2022-07-25T03:48:57;7.90;;;5.35;;
71975;SDS011;60680;52.182;5.398;2022-07-25T03:51:24;7.17;;;4.70;;
71975;SDS011;60680;52.182;5.398;2022-07-25T03:53:50;7.15;;;4.80;;
71975;SDS011;60680;52.182;5.398;2022-07-25T03:56:32;9.10;;;5.32;;
71975;SDS011;60680;52.182;5.398;2022-07-25T03:59:09;8.10;;;5.25;;
71975;SDS011;60680;52.182;5.398;2022-07-25T04:01:37;8.57;;;5.50;;
71975;SDS011;60680;52.182;5.398;2022-07-25T04:04:05;8.13;;;5.80;;
71975;SDS011;60680;52.182;5.398;2022-07-25T04:06:32;8.13;;;5.45;;
71975;SDS011;60680;52.182;5.398;2022-07-25T04:08:59;8.35;;;5.85;;
71975;SDS011;60680;52.182;5.398;2022-07-25T04:11:25;7.32;;;5.78;;
71975;SDS011;60680;52.182;5.398;2022-07-25T04:13:54;8.30;;;6.38;;
71975;SDS011;60680;52.182;5.398;2022-07-25T04:16:21;9.50;;;6.23;;
71975;SDS011;60680;52.182;5.398;2022-07-25T04:18:49;8.52;;;6.32;;
71975;SDS011;60680;52.182;5.398;2022-07-25T04:21:16;9.50;;;6.03;;
71975;SDS011;60680;52.182;5.398;2022-07-25T04:23:43;10.68;;;6.40;;
71975;SDS011;60680;52.182;5.398;2022-07-25T04:26:10;9.38;;;6.70;;
71975;SDS011;60680;52.182;5.398;2022-07-25T04:28:36;8.07;;;5.53;;
71975;SDS011;60680;52.182;5.398;2022-07-25T04:31:03;8.32;;;5.85;;
71975;SDS011;60680;52.182;5.398;2022-07-25T04:33:30;11.57;;;6.30;;
71975;SDS011;60680;52.182;5.398;2022-07-25T04:35:56;8.35;;;6.00;;
71975;SDS011;60680;52.182;5.398;2022-07-25T04:38:23;7.95;;;5.88;;
71975;SDS011;60680;52.182;5.398;2022-07-25T04:40:49;8.13;;;5.70;;
71975;SDS011;60680;52.182;5.398;2022-07-25T04:43:16;8.85;;;5.40;;
71975;SDS011;60680;52.182;5.398;2022-07-25T04:45:42;8.68;;;5.50;;
71975;SDS011;60680;52.182;5.398;2022-07-25T04:48:09;7.25;;;5.40;;
71975;SDS011;60680;52.182;5.398;2022-07-25T04:50:35;8.70;;;5.82;;
71975;SDS011;60680;52.182;5.398;2022-07-25T04:53:03;8.03;;;6.03;;
71975;SDS011;60680;52.182;5.398;2022-07-25T04:55:30;8.77;;;5.70;;
71975;SDS011;60680;52.182;5.398;2022-07-25T04:58:01;7.38;;;5.68;;
71975;SDS011;60680;52.182;5.398;2022-07-25T05:00:28;9.50;;;5.80;;
71975;SDS011;60680;52.182;5.398;2022-07-25T05:02:54;9.52;;;5.78;;
71975;SDS011;60680;52.182;5.398;2022-07-25T05:05:20;7.27;;;5.53;;
71975;SDS011;60680;52.182;5.398;2022-07-25T05:07:48;9.30;;;6.10;;
71975;SDS011;60680;52.182;5.398;2022-07-25T05:10:15;7.32;;;5.15;;
71975;SDS011;60680;52.182;5.398;2022-07-25T05:12:42;7.60;;;5.40;;
71975;SDS011;60680;52.182;5.398;2022-07-25T05:15:09;8.75;;;5.32;;
71975;SDS011;60680;52.182;5.398;2022-07-25T05:17:36;9.87;;;4.90;;
71975;SDS011;60680;52.182;5.398;2022-07-25T05:20:03;8.35;;;5.32;;
71975;SDS011;60680;52.182;5.398;2022-07-25T05:22:31;7.35;;;5.43;;
71975;SDS011;60680;52.182;5.398;2022-07-25T05:24:57;6.72;;;5.35;;
71975;SDS011;60680;52.182;5.398;2022-07-25T05:27:24;7.53;;;5.40;;
71975;SDS011;60680;52.182;5.398;2022-07-25T05:29:51;6.43;;;5.00;;
71975;SDS011;60680;52.182;5.398;2022-07-25T05:32:18;6.13;;;4.95;;
71975;SDS011;60680;52.182;5.398;2022-07-25T05:34:44;8.18;;;5.15;;
71975;SDS011;60680;52.182;5.398;2022-07-25T05:37:11;6.25;;;5.30;;
71975;SDS011;60680;52.182;5.398;2022-07-25T05:39:37;7.10;;;4.90;;
71975;SDS011;60680;52.182;5.398;2022-07-25T05:42:05;8.00;;;5.63;;
71975;SDS011;60680;52.182;5.398;2022-07-25T05:44:32;7.20;;;5.50;;
71975;SDS011;60680;52.182;5.398;2022-07-25T05:46:59;7.55;;;5.57;;
71975;SDS011;60680;52.182;5.398;2022-07-25T05:49:26;7.22;;;5.10;;
71975;SDS011;60680;52.182;5.398;2022-07-25T05:51:53;7.20;;;5.63;;
71975;SDS011;60680;52.182;5.398;2022-07-25T05:54:19;9.80;;;6.23;;
71975;SDS011;60680;52.182;5.398;2022-07-25T05:56:46;7.28;;;6.28;;
71975;SDS011;60680;52.182;5.398;2022-07-25T05:59:12;8.15;;;5.88;;
71975;SDS011;60680;52.182;5.398;2022-07-25T06:01:39;12.13;;;6.65;;
71975;SDS011;60680;52.182;5.398;2022-07-25T06:04:05;9.50;;;6.30;;
71975;SDS011;60680;52.182;5.398;2022-07-25T06:06:33;9.40;;;6.23;;
71975;SDS011;60680;52.182;5.398;2022-07-25T06:08:59;12.07;;;6.43;;
71975;SDS011;60680;52.182;5.398;2022-07-25T06:11:26;11.38;;;7.28;;
71975;SDS011;60680;52.182;5.398;2022-07-25T06:13:56;8.75;;;6.82;;
71975;SDS011;60680;52.182;5.398;2022-07-25T06:16:23;10.20;;;7.20;;
71975;SDS011;60680;52.182;5.398;2022-07-25T06:18:50;10.53;;;6.70;;
71975;SDS011;60680;52.182;5.398;2022-07-25T06:21:16;9.05;;;6.13;;
71975;SDS011;60680;52.182;5.398;2022-07-25T06:23:43;9.75;;;6.55;;
71975;SDS011;60680;52.182;5.398;2022-07-25T06:26:10;10.75;;;6.47;;
71975;SDS011;60680;52.182;5.398;2022-07-25T06:28:36;10.13;;;6.43;;
71975;SDS011;60680;52.182;5.398;2022-07-25T06:31:03;9.37;;;6.10;;
71975;SDS011;60680;52.182;5.398;2022-07-25T06:33:30;9.65;;;5.60;;
71975;SDS011;60680;52.182;5.398;2022-07-25T06:35:57;7.88;;;6.03;;
71975;SDS011;60680;52.182;5.398;2022-07-25T06:38:23;7.55;;;5.20;;
71975;SDS011;60680;52.182;5.398;2022-07-25T06:40:50;7.68;;;5.30;;
71975;SDS011;60680;52.182;5.398;2022-07-25T06:43:17;7.63;;;5.10;;
71975;SDS011;60680;52.182;5.398;2022-07-25T06:45:43;7.40;;;4.53;;
71975;SDS011;60680;52.182;5.398;2022-07-25T06:48:16;7.13;;;4.75;;
71975;SDS011;60680;52.182;5.398;2022-07-25T06:50:43;6.22;;;4.50;;
71975;SDS011;60680;52.182;5.398;2022-07-25T06:53:10;5.70;;;4.65;;
71975;SDS011;60680;52.182;5.398;2022-07-25T06:55:37;5.63;;;4.00;;
71975;SDS011;60680;52.182;5.398;2022-07-25T06:58:04;5.43;;;4.25;;
71975;SDS011;60680;52.182;5.398;2022-07-25T07:00:30;4.50;;;3.63;;
71975;SDS011;60680;52.182;5.398;2022-07-25T07:02:58;5.70;;;3.85;;
71975;SDS011;60680;52.182;5.398;2022-07-25T07:05:29;7.18;;;3.35;;
71975;SDS011;60680;52.182;5.398;2022-07-25T07:07:59;6.63;;;3.33;;
71975;SDS011;60680;52.182;5.398;2022-07-25T07:10:26;5.32;;;2.30;;
71975;SDS011;60680;52.182;5.398;2022-07-25T07:13:09;2.83;;;2.08;;
71975;SDS011;60680;52.182;5.398;2022-07-25T07:15:38;3.42;;;2.03;;
71975;SDS011;60680;52.182;5.398;2022-07-25T07:18:05;2.80;;;2.00;;
71975;SDS011;60680;52.182;5.398;2022-07-25T07:20:32;1.90;;;1.57;;
71975;SDS011;60680;52.182;5.398;2022-07-25T07:22:59;2.60;;;1.58;;
71975;SDS011;60680;52.182;5.398;2022-07-25T07:25:25;4.88;;;1.90;;
71975;SDS011;60680;52.182;5.398;2022-07-25T07:27:53;4.13;;;1.33;;
71975;SDS011;60680;52.182;5.398;2022-07-25T07:30:20;2.28;;;1.40;;
71975;SDS011;60680;52.182;5.398;2022-07-25T07:32:52;2.60;;;0.93;;
71975;SDS011;60680;52.182;5.398;2022-07-25T07:35:19;1.95;;;1.20;;
71975;SDS011;60680;52.182;5.398;2022-07-25T07:37:45;5.50;;;2.10;;
71975;SDS011;60680;52.182;5.398;2022-07-25T07:40:13;2.40;;;1.40;;
71975;SDS011;60680;52.182;5.398;2022-07-25T07:42:44;3.13;;;1.50;;
71975;SDS011;60680;52.182;5.398;2022-07-25T07:45:13;2.60;;;1.30;;
71975;SDS011;60680;52.182;5.398;2022-07-25T07:47:48;3.17;;;1.45;;
71975;SDS011;60680;52.182;5.398;2022-07-25T07:50:17;2.58;;;1.40;;
71975;SDS011;60680;52.182;5.398;2022-07-25T07:52:45;2.00;;;1.00;;
71975;SDS011;60680;52.182;5.398;2022-07-25T07:55:12;1.83;;;1.08;;
71975;SDS011;60680;52.182;5.398;2022-07-25T07:57:58;2.17;;;1.00;;
71975;SDS011;60680;52.182;5.398;2022-07-25T08:00:25;3.85;;;1.00;;
71975;SDS011;60680;52.182;5.398;2022-07-25T08:03:01;1.70;;;1.10;;
71975;SDS011;60680;52.182;5.398;2022-07-25T08:05:30;2.22;;;0.95;;
71975;SDS011;60680;52.182;5.398;2022-07-25T08:07:59;2.42;;;1.10;;
71975;SDS011;60680;52.182;5.398;2022-07-25T08:10:27;1.50;;;1.07;;
71975;SDS011;60680;52.182;5.398;2022-07-25T08:12:55;1.52;;;0.93;;
71975;SDS011;60680;52.182;5.398;2022-07-25T08:15:23;3.22;;;0.90;;
71975;SDS011;60680;52.182;5.398;2022-07-25T08:17:50;5.28;;;1.10;;
71975;SDS011;60680;52.182;5.398;2022-07-25T08:20:18;1.33;;;0.70;;
71975;SDS011;60680;52.182;5.398;2022-07-25T08:23:04;1.77;;;0.67;;
71975;SDS011;60680;52.182;5.398;2022-07-25T08:25:31;1.88;;;0.57;;
71975;SDS011;60680;52.182;5.398;2022-07-25T08:27:57;1.52;;;0.30;;
71975;SDS011;60680;52.182;5.398;2022-07-25T08:30:25;1.88;;;0.70;;
71975;SDS011;60680;52.182;5.398;2022-07-25T08:32:52;2.28;;;0.60;;
71975;SDS011;60680;52.182;5.398;2022-07-25T08:35:19;1.67;;;0.60;;
71975;SDS011;60680;52.182;5.398;2022-07-25T08:37:46;1.90;;;0.70;;
71975;SDS011;60680;52.182;5.398;2022-07-25T08:40:14;2.10;;;0.57;;
71975;SDS011;60680;52.182;5.398;2022-07-25T08:42:43;2.20;;;0.80;;
71975;SDS011;60680;52.182;5.398;2022-07-25T08:45:10;2.40;;;0.70;;
71975;SDS011;60680;52.182;5.398;2022-07-25T08:47:39;3.30;;;0.60;;
71975;SDS011;60680;52.182;5.398;2022-07-25T08:50:07;3.72;;;0.60;;
71975;SDS011;60680;52.182;5.398;2022-07-25T08:52:35;4.38;;;1.42;;
71975;SDS011;60680;52.182;5.398;2022-07-25T08:55:04;3.42;;;0.90;;
71975;SDS011;60680;52.182;5.398;2022-07-25T08:57:33;2.17;;;0.63;;
71975;SDS011;60680;52.182;5.398;2022-07-25T09:00:01;1.70;;;0.60;;
71975;SDS011;60680;52.182;5.398;2022-07-25T09:02:29;2.28;;;0.68;;
71975;SDS011;60680;52.182;5.398;2022-07-25T09:04:56;3.10;;;0.75;;
71975;SDS011;60680;52.182;5.398;2022-07-25T09:07:39;1.60;;;0.80;;
71975;SDS011;60680;52.182;5.398;2022-07-25T09:10:11;2.80;;;0.77;;
71975;SDS011;60680;52.182;5.398;2022-07-25T09:12:50;3.30;;;0.70;;
71975;SDS011;60680;52.182;5.398;2022-07-25T09:15:29;2.03;;;0.60;;
71975;SDS011;60680;52.182;5.398;2022-07-25T09:17:58;3.15;;;0.75;;
71975;SDS011;60680;52.182;5.398;2022-07-25T09:23:14;1.85;;;0.80;;
71975;SDS011;60680;52.182;5.398;2022-07-25T09:28:39;3.55;;;0.70;;
71975;SDS011;60680;52.182;5.398;2022-07-25T09:31:11;2.58;;;0.80;;
71975;SDS011;60680;52.182;5.398;2022-07-25T09:36:17;4.68;;;1.00;;
71975;SDS011;60680;52.182;5.398;2022-07-25T09:38:56;2.00;;;0.83;;
71975;SDS011;60680;52.182;5.398;2022-07-25T09:41:36;3.85;;;1.10;;
71975;SDS011;60680;52.182;5.398;2022-07-25T09:44:18;4.10;;;1.13;;
71975;SDS011;60680;52.182;5.398;2022-07-25T09:46:48;4.55;;;1.20;;
71975;SDS011;60680;52.182;5.398;2022-07-25T09:49:15;4.07;;;0.90;;
71975;SDS011;60680;52.182;5.398;2022-07-25T09:51:42;2.70;;;0.80;;
71975;SDS011;60680;52.182;5.398;2022-07-25T09:54:08;2.72;;;1.00;;
71975;SDS011;60680;52.182;5.398;2022-07-25T09:56:35;2.58;;;0.90;;
71975;SDS011;60680;52.182;5.398;2022-07-25T09:59:05;3.05;;;0.93;;
71975;SDS011;60680;52.182;5.398;2022-07-25T10:01:33;2.97;;;1.10;;
71975;SDS011;60680;52.182;5.398;2022-07-25T10:04:21;6.27;;;1.33;;
71975;SDS011;60680;52.182;5.398;2022-07-25T10:07:06;3.33;;;1.00;;
71975;SDS011;60680;52.182;5.398;2022-07-25T10:09:44;4.75;;;1.65;;
71975;SDS011;60680;52.182;5.398;2022-07-25T10:12:17;7.50;;;1.40;;
71975;SDS011;60680;52.182;5.398;2022-07-25T10:15:02;3.92;;;0.77;;
71975;SDS011;60680;52.182;5.398;2022-07-25T10:17:31;1.70;;;0.90;;
71975;SDS011;60680;52.182;5.398;2022-07-25T10:20:00;5.43;;;1.15;;
71975;SDS011;60680;52.182;5.398;2022-07-25T10:22:41;3.92;;;1.00;;
71975;SDS011;60680;52.182;5.398;2022-07-25T10:25:22;3.33;;;0.82;;
71975;SDS011;60680;52.182;5.398;2022-07-25T10:27:50;3.17;;;0.93;;
71975;SDS011;60680;52.182;5.398;2022-07-25T10:30:44;3.00;;;0.70;;
71975;SDS011;60680;52.182;5.398;2022-07-25T10:33:13;5.03;;;1.20;;
71975;SDS011;60680;52.182;5.398;2022-07-25T10:35:43;2.30;;;1.08;;
71975;SDS011;60680;52.182;5.398;2022-07-25T10:38:10;3.83;;;1.30;;
71975;SDS011;60680;52.182;5.398;2022-07-25T10:40:41;2.38;;;1.05;;
71975;SDS011;60680;52.182;5.398;2022-07-25T10:43:19;4.63;;;0.90;;
71975;SDS011;60680;52.182;5.398;2022-07-25T10:48:20;2.63;;;1.70;;
71975;SDS011;60680;52.182;5.398;2022-07-25T10:50:58;3.17;;;1.58;;
71975;SDS011;60680;52.182;5.398;2022-07-25T10:53:48;3.50;;;1.40;;
71975;SDS011;60680;52.182;5.398;2022-07-25T10:56:15;3.50;;;1.07;;
71975;SDS011;60680;52.182;5.398;2022-07-25T11:01:22;3.45;;;1.02;;
71975;SDS011;60680;52.182;5.398;2022-07-25T11:03:55;5.80;;;1.45;;
71975;SDS011;60680;52.182;5.398;2022-07-25T11:06:34;2.45;;;0.80;;
71975;SDS011;60680;52.182;5.398;2022-07-25T11:09:06;3.73;;;1.13;;
71975;SDS011;60680;52.182;5.398;2022-07-25T11:11:45;3.47;;;1.10;;
71975;SDS011;60680;52.182;5.398;2022-07-25T11:14:14;4.00;;;1.30;;
71975;SDS011;60680;52.182;5.398;2022-07-25T11:16:42;6.40;;;1.75;;
71975;SDS011;60680;52.182;5.398;2022-07-25T11:19:16;2.88;;;1.30;;
71975;SDS011;60680;52.182;5.398;2022-07-25T11:21:48;2.40;;;1.07;;
71975;SDS011;60680;52.182;5.398;2022-07-25T11:24:21;3.95;;;1.58;;
71975;SDS011;60680;52.182;5.398;2022-07-25T11:26:59;5.60;;;2.08;;
71975;SDS011;60680;52.182;5.398;2022-07-25T11:29:25;4.10;;;2.00;;
71975;SDS011;60680;52.182;5.398;2022-07-25T11:31:56;4.68;;;2.10;;
71975;SDS011;60680;52.182;5.398;2022-07-25T11:34:29;7.00;;;2.00;;
71975;SDS011;60680;52.182;5.398;2022-07-25T11:37:00;4.82;;;1.70;;
71975;SDS011;60680;52.182;5.398;2022-07-25T11:39:30;3.85;;;1.83;;
71975;SDS011;60680;52.182;5.398;2022-07-25T11:42:08;3.40;;;2.05;;
71975;SDS011;60680;52.182;5.398;2022-07-25T11:44:39;7.75;;;2.65;;
71975;SDS011;60680;52.182;5.398;2022-07-25T11:47:23;3.63;;;1.90;;
71975;SDS011;60680;52.182;5.398;2022-07-25T11:49:58;4.45;;;2.00;;
71975;SDS011;60680;52.182;5.398;2022-07-25T11:55:03;6.50;;;2.47;;
71975;SDS011;60680;52.182;5.398;2022-07-25T11:57:35;5.97;;;2.25;;
71975;SDS011;60680;52.182;5.398;2022-07-25T12:00:07;9.30;;;2.17;;
71975;SDS011;60680;52.182;5.398;2022-07-25T12:02:36;6.50;;;1.80;;
71975;SDS011;60680;52.182;5.398;2022-07-25T12:05:08;4.75;;;1.83;;
71975;SDS011;60680;52.182;5.398;2022-07-25T12:07:36;8.52;;;1.95;;
71975;SDS011;60680;52.182;5.398;2022-07-25T12:10:05;6.05;;;1.65;;
71975;SDS011;60680;52.182;5.398;2022-07-25T12:12:43;5.07;;;1.53;;
71975;SDS011;60680;52.182;5.398;2022-07-25T12:17:49;6.82;;;2.08;;
71975;SDS011;60680;52.182;5.398;2022-07-25T12:20:18;4.22;;;1.35;;
71975;SDS011;60680;52.182;5.398;2022-07-25T12:22:48;6.43;;;1.40;;
71975;SDS011;60680;52.182;5.398;2022-07-25T12:25:16;4.83;;;1.40;;
71975;SDS011;60680;52.182;5.398;2022-07-25T12:27:43;4.82;;;1.10;;
71975;SDS011;60680;52.182;5.398;2022-07-25T12:30:11;6.50;;;1.35;;
71975;SDS011;60680;52.182;5.398;2022-07-25T12:32:38;7.38;;;2.22;;
71975;SDS011;60680;52.182;5.398;2022-07-25T12:35:05;4.25;;;1.60;;
71975;SDS011;60680;52.182;5.398;2022-07-25T12:37:33;5.63;;;1.60;;
71975;SDS011;60680;52.182;5.398;2022-07-25T12:40:00;5.20;;;1.77;;
71975;SDS011;60680;52.182;5.398;2022-07-25T12:42:27;8.73;;;2.30;;
71975;SDS011;60680;52.182;5.398;2022-07-25T12:44:54;8.02;;;2.83;;
71975;SDS011;60680;52.182;5.398;2022-07-25T12:47:22;3.28;;;1.70;;
71975;SDS011;60680;52.182;5.398;2022-07-25T12:49:50;5.33;;;1.47;;
71975;SDS011;60680;52.182;5.398;2022-07-25T12:52:16;6.22;;;1.20;;
71975;SDS011;60680;52.182;5.398;2022-07-25T12:54:43;4.90;;;1.85;;
71975;SDS011;60680;52.182;5.398;2022-07-25T12:57:10;4.30;;;1.88;;
71975;SDS011;60680;52.182;5.398;2022-07-25T12:59:38;4.28;;;1.90;;
71975;SDS011;60680;52.182;5.398;2022-07-25T13:02:05;6.27;;;1.60;;
71975;SDS011;60680;52.182;5.398;2022-07-25T13:04:32;5.90;;;1.60;;
71975;SDS011;60680;52.182;5.398;2022-07-25T13:06:59;5.75;;;1.50;;
71975;SDS011;60680;52.182;5.398;2022-07-25T13:09:26;7.40;;;1.48;;
71975;SDS011;60680;52.182;5.398;2022-07-25T13:11:54;5.13;;;1.45;;
71975;SDS011;60680;52.182;5.398;2022-07-25T13:14:21;2.83;;;1.23;;
71975;SDS011;60680;52.182;5.398;2022-07-25T13:16:48;3.03;;;1.48;;
71975;SDS011;60680;52.182;5.398;2022-07-25T13:19:16;3.65;;;1.33;;
71975;SDS011;60680;52.182;5.398;2022-07-25T13:21:43;4.63;;;1.05;;
71975;SDS011;60680;52.182;5.398;2022-07-25T13:24:10;5.13;;;0.80;;
71975;SDS011;60680;52.182;5.398;2022-07-25T13:26:37;6.17;;;1.30;;
71975;SDS011;60680;52.182;5.398;2022-07-25T13:29:04;5.57;;;1.25;;
71975;SDS011;60680;52.182;5.398;2022-07-25T13:31:37;3.97;;;1.08;;
71975;SDS011;60680;52.182;5.398;2022-07-25T13:34:06;2.92;;;0.90;;
71975;SDS011;60680;52.182;5.398;2022-07-25T13:36:34;2.90;;;1.20;;
71975;SDS011;60680;52.182;5.398;2022-07-25T13:39:02;9.67;;;1.50;;
71975;SDS011;60680;52.182;5.398;2022-07-25T13:41:30;5.30;;;1.30;;
71975;SDS011;60680;52.182;5.398;2022-07-25T13:43:57;6.38;;;1.88;;
71975;SDS011;60680;52.182;5.398;2022-07-25T13:46:26;4.53;;;1.58;;
71975;SDS011;60680;52.182;5.398;2022-07-25T13:48:53;5.28;;;1.10;;
71975;SDS011;60680;52.182;5.398;2022-07-25T13:51:20;6.23;;;1.10;;
71975;SDS011;60680;52.182;5.398;2022-07-25T13:53:47;7.72;;;1.88;;
71975;SDS011;60680;52.182;5.398;2022-07-25T13:56:14;4.57;;;1.25;;
71975;SDS011;60680;52.182;5.398;2022-07-25T13:58:41;6.13;;;0.95;;
71975;SDS011;60680;52.182;5.398;2022-07-25T14:01:08;8.38;;;1.10;;
71975;SDS011;60680;52.182;5.398;2022-07-25T14:03:36;2.97;;;0.80;;
71975;SDS011;60680;52.182;5.398;2022-07-25T14:06:04;4.10;;;0.82;;
71975;SDS011;60680;52.182;5.398;2022-07-25T14:08:31;5.03;;;0.85;;
71975;SDS011;60680;52.182;5.398;2022-07-25T14:10:59;5.35;;;0.85;;
71975;SDS011;60680;52.182;5.398;2022-07-25T14:13:26;4.37;;;0.90;;
71975;SDS011;60680;52.182;5.398;2022-07-25T14:15:52;3.65;;;0.60;;
71975;SDS011;60680;52.182;5.398;2022-07-25T14:18:19;7.10;;;1.10;;
71975;SDS011;60680;52.182;5.398;2022-07-25T14:20:45;8.10;;;0.73;;
71975;SDS011;60680;52.182;5.398;2022-07-25T14:23:12;6.00;;;0.93;;
71975;SDS011;60680;52.182;5.398;2022-07-25T14:25:38;6.53;;;0.95;;
71975;SDS011;60680;52.182;5.398;2022-07-25T14:28:05;5.03;;;0.90;;
71975;SDS011;60680;52.182;5.398;2022-07-25T14:30:32;6.75;;;0.98;;
71975;SDS011;60680;52.182;5.398;2022-07-25T14:32:59;6.67;;;1.23;;
71975;SDS011;60680;52.182;5.398;2022-07-25T14:35:26;2.95;;;0.82;;
71975;SDS011;60680;52.182;5.398;2022-07-25T14:37:57;4.30;;;0.95;;
71975;SDS011;60680;52.182;5.398;2022-07-25T14:40:24;4.32;;;0.82;;
71975;SDS011;60680;52.182;5.398;2022-07-25T14:42:51;3.38;;;0.57;;
71975;SDS011;60680;52.182;5.398;2022-07-25T14:45:17;6.17;;;0.50;;
71975;SDS011;60680;52.182;5.398;2022-07-25T14:47:46;5.00;;;1.15;;
71975;SDS011;60680;52.182;5.398;2022-07-25T14:50:13;5.30;;;0.52;;
71975;SDS011;60680;52.182;5.398;2022-07-25T14:52:40;6.53;;;0.95;;
71975;SDS011;60680;52.182;5.398;2022-07-25T14:55:07;4.20;;;0.60;;
71975;SDS011;60680;52.182;5.398;2022-07-25T14:57:34;1.40;;;0.50;;
71975;SDS011;60680;52.182;5.398;2022-07-25T15:00:02;4.10;;;0.60;;
71975;SDS011;60680;52.182;5.398;2022-07-25T15:02:30;1.10;;;0.40;;
71975;SDS011;60680;52.182;5.398;2022-07-25T15:04:57;3.42;;;0.60;;
71975;SDS011;60680;52.182;5.398;2022-07-25T15:07:24;4.75;;;0.60;;
71975;SDS011;60680;52.182;5.398;2022-07-25T15:09:50;3.63;;;0.60;;
71975;SDS011;60680;52.182;5.398;2022-07-25T15:12:17;1.30;;;0.40;;
71975;SDS011;60680;52.182;5.398;2022-07-25T15:14:46;4.18;;;0.47;;